sensor_id;sensor_type;location;lat;lon;timestamp;P1;durP1;ratioP1;P2;durP2;ratioP2
74541;SDS011;63015;45.378;20.360;2022-11-14T00:01:26;26.30;;;13.05;;
74541;SDS011;63015;45.378;20.360;2022-11-14T00:03:48;25.70;;;12.07;;
74541;SDS011;63015;45.378;20.360;2022-11-14T00:08:27;27.13;;;12.23;;
74541;SDS011;63015;45.378;20.360;2022-11-14T00:10:46;31.23;;;13.05;;
74541;SDS011;63015;45.378;20.360;2022-11-14T00:13:07;22.10;;;11.27;;
74541;SDS011;63015;45.378;20.360;2022-11-14T00:15:25;23.73;;;12.25;;
74541;SDS011;63015;45.378;20.360;2022-11-14T00:17:44;24.08;;;11.77;;
74541;SDS011;63015;45.378;20.360;2022-11-14T00:20:04;24.70;;;12.57;;
74541;SDS011;63015;45.378;20.360;2022-11-14T00:22:25;23.17;;;11.35;;
74541;SDS011;63015;45.378;20.360;2022-11-14T00:24:44;22.42;;;11.30;;
74541;SDS011;63015;45.378;20.360;2022-11-14T00:27:03;23.23;;;11.45;;
74541;SDS011;63015;45.378;20.360;2022-11-14T00:29:22;25.05;;;12.65;;
74541;SDS011;63015;45.378;20.360;2022-11-14T00:31:41;23.90;;;11.95;;
74541;SDS011;63015;45.378;20.360;2022-11-14T00:34:01;23.65;;;12.55;;
74541;SDS011;63015;45.378;20.360;2022-11-14T00:36:19;26.77;;;12.57;;
74541;SDS011;63015;45.378;20.360;2022-11-14T00:38:39;26.27;;;12.10;;
74541;SDS011;63015;45.378;20.360;2022-11-14T00:40:58;19.02;;;9.80;;
74541;SDS011;63015;45.378;20.360;2022-11-14T00:43:17;21.65;;;11.73;;
74541;SDS011;63015;45.378;20.360;2022-11-14T00:45:37;21.50;;;11.80;;
74541;SDS011;63015;45.378;20.360;2022-11-14T00:47:56;17.90;;;9.05;;
74541;SDS011;63015;45.378;20.360;2022-11-14T00:50:15;23.70;;;11.75;;
74541;SDS011;63015;45.378;20.360;2022-11-14T00:52:35;23.13;;;10.98;;
74541;SDS011;63015;45.378;20.360;2022-11-14T00:54:54;20.90;;;10.75;;
74541;SDS011;63015;45.378;20.360;2022-11-14T00:57:13;20.73;;;10.77;;
74541;SDS011;63015;45.378;20.360;2022-11-14T00:59:31;21.35;;;10.63;;
74541;SDS011;63015;45.378;20.360;2022-11-14T01:01:50;22.10;;;11.93;;
74541;SDS011;63015;45.378;20.360;2022-11-14T01:04:09;24.35;;;10.77;;
74541;SDS011;63015;45.378;20.360;2022-11-14T01:06:28;26.08;;;11.32;;
74541;SDS011;63015;45.378;20.360;2022-11-14T01:08:49;17.98;;;8.43;;
74541;SDS011;63015;45.378;20.360;2022-11-14T01:11:14;22.52;;;9.80;;
74541;SDS011;63015;45.378;20.360;2022-11-14T01:13:35;23.73;;;10.90;;
74541;SDS011;63015;45.378;20.360;2022-11-14T01:15:58;21.33;;;10.15;;
74541;SDS011;63015;45.378;20.360;2022-11-14T01:18:19;23.35;;;10.65;;
74541;SDS011;63015;45.378;20.360;2022-11-14T01:20:40;22.25;;;10.90;;
74541;SDS011;63015;45.378;20.360;2022-11-14T01:23:01;22.02;;;11.35;;
74541;SDS011;63015;45.378;20.360;2022-11-14T01:25:20;20.23;;;9.68;;
74541;SDS011;63015;45.378;20.360;2022-11-14T01:27:39;21.90;;;10.55;;
74541;SDS011;63015;45.378;20.360;2022-11-14T01:29:58;16.55;;;8.65;;
74541;SDS011;63015;45.378;20.360;2022-11-14T01:32:17;19.02;;;9.35;;
74541;SDS011;63015;45.378;20.360;2022-11-14T01:34:35;22.48;;;9.90;;
74541;SDS011;63015;45.378;20.360;2022-11-14T01:36:54;12.10;;;5.57;;
74541;SDS011;63015;45.378;20.360;2022-11-14T01:39:14;21.48;;;10.18;;
74541;SDS011;63015;45.378;20.360;2022-11-14T01:41:32;23.13;;;11.18;;
74541;SDS011;63015;45.378;20.360;2022-11-14T01:43:51;16.73;;;7.97;;
74541;SDS011;63015;45.378;20.360;2022-11-14T01:46:30;20.05;;;9.75;;
74541;SDS011;63015;45.378;20.360;2022-11-14T01:48:58;21.05;;;7.72;;
74541;SDS011;63015;45.378;20.360;2022-11-14T01:53:46;18.58;;;9.40;;
74541;SDS011;63015;45.378;20.360;2022-11-14T01:56:08;18.10;;;7.95;;
74541;SDS011;63015;45.378;20.360;2022-11-14T01:58:30;19.27;;;9.50;;
74541;SDS011;63015;45.378;20.360;2022-11-14T02:00:54;19.65;;;9.25;;
74541;SDS011;63015;45.378;20.360;2022-11-14T02:03:14;15.07;;;7.32;;
74541;SDS011;63015;45.378;20.360;2022-11-14T02:05:33;16.35;;;7.20;;
74541;SDS011;63015;45.378;20.360;2022-11-14T02:07:53;18.55;;;8.77;;
74541;SDS011;63015;45.378;20.360;2022-11-14T02:10:17;14.40;;;7.07;;
74541;SDS011;63015;45.378;20.360;2022-11-14T02:12:38;20.90;;;7.15;;
74541;SDS011;63015;45.378;20.360;2022-11-14T02:14:57;13.27;;;6.30;;
74541;SDS011;63015;45.378;20.360;2022-11-14T02:17:17;21.77;;;9.48;;
74541;SDS011;63015;45.378;20.360;2022-11-14T02:22:02;19.92;;;9.07;;
74541;SDS011;63015;45.378;20.360;2022-11-14T02:24:20;20.92;;;9.95;;
74541;SDS011;63015;45.378;20.360;2022-11-14T02:26:39;15.30;;;7.45;;
74541;SDS011;63015;45.378;20.360;2022-11-14T02:29:00;17.52;;;8.52;;
74541;SDS011;63015;45.378;20.360;2022-11-14T02:31:19;18.27;;;8.00;;
74541;SDS011;63015;45.378;20.360;2022-11-14T02:33:38;21.95;;;9.30;;
74541;SDS011;63015;45.378;20.360;2022-11-14T02:35:58;14.35;;;6.20;;
74541;SDS011;63015;45.378;20.360;2022-11-14T02:38:17;9.80;;;5.10;;
74541;SDS011;63015;45.378;20.360;2022-11-14T02:40:36;16.42;;;7.53;;
74541;SDS011;63015;45.378;20.360;2022-11-14T02:42:55;17.25;;;8.27;;
74541;SDS011;63015;45.378;20.360;2022-11-14T02:45:14;16.38;;;7.78;;
74541;SDS011;63015;45.378;20.360;2022-11-14T02:47:34;17.05;;;8.60;;
74541;SDS011;63015;45.378;20.360;2022-11-14T02:49:53;13.68;;;6.75;;
74541;SDS011;63015;45.378;20.360;2022-11-14T02:52:12;18.70;;;8.75;;
74541;SDS011;63015;45.378;20.360;2022-11-14T02:54:31;13.60;;;6.40;;
74541;SDS011;63015;45.378;20.360;2022-11-14T02:56:50;20.80;;;7.10;;
74541;SDS011;63015;45.378;20.360;2022-11-14T02:59:09;18.20;;;8.65;;
74541;SDS011;63015;45.378;20.360;2022-11-14T03:01:28;15.18;;;7.38;;
74541;SDS011;63015;45.378;20.360;2022-11-14T03:03:48;17.52;;;8.43;;
74541;SDS011;63015;45.378;20.360;2022-11-14T03:06:06;16.25;;;8.32;;
74541;SDS011;63015;45.378;20.360;2022-11-14T03:08:26;18.65;;;7.50;;
74541;SDS011;63015;45.378;20.360;2022-11-14T03:10:45;17.17;;;8.20;;
74541;SDS011;63015;45.378;20.360;2022-11-14T03:13:04;16.45;;;8.40;;
74541;SDS011;63015;45.378;20.360;2022-11-14T03:15:23;17.33;;;8.23;;
74541;SDS011;63015;45.378;20.360;2022-11-14T03:17:42;17.30;;;8.15;;
74541;SDS011;63015;45.378;20.360;2022-11-14T03:20:02;14.77;;;6.53;;
74541;SDS011;63015;45.378;20.360;2022-11-14T03:22:22;14.88;;;6.30;;
74541;SDS011;63015;45.378;20.360;2022-11-14T03:24:40;12.90;;;6.03;;
74541;SDS011;63015;45.378;20.360;2022-11-14T03:26:59;12.02;;;6.70;;
74541;SDS011;63015;45.378;20.360;2022-11-14T03:29:18;15.98;;;8.10;;
74541;SDS011;63015;45.378;20.360;2022-11-14T03:31:38;19.00;;;9.02;;
74541;SDS011;63015;45.378;20.360;2022-11-14T03:33:56;16.42;;;8.05;;
74541;SDS011;63015;45.378;20.360;2022-11-14T03:36:15;16.88;;;8.18;;
74541;SDS011;63015;45.378;20.360;2022-11-14T03:38:34;18.17;;;9.02;;
74541;SDS011;63015;45.378;20.360;2022-11-14T03:40:54;16.92;;;8.20;;
74541;SDS011;63015;45.378;20.360;2022-11-14T03:43:16;13.60;;;4.53;;
74541;SDS011;63015;45.378;20.360;2022-11-14T03:45:36;14.13;;;6.85;;
74541;SDS011;63015;45.378;20.360;2022-11-14T03:47:55;17.42;;;9.20;;
74541;SDS011;63015;45.378;20.360;2022-11-14T03:50:14;15.93;;;8.18;;
74541;SDS011;63015;45.378;20.360;2022-11-14T03:52:33;18.40;;;8.63;;
74541;SDS011;63015;45.378;20.360;2022-11-14T03:54:52;18.98;;;7.60;;
74541;SDS011;63015;45.378;20.360;2022-11-14T03:57:11;16.77;;;8.05;;
74541;SDS011;63015;45.378;20.360;2022-11-14T03:59:30;15.02;;;6.70;;
74541;SDS011;63015;45.378;20.360;2022-11-14T04:01:49;13.95;;;5.50;;
74541;SDS011;63015;45.378;20.360;2022-11-14T04:04:10;10.13;;;4.50;;
74541;SDS011;63015;45.378;20.360;2022-11-14T04:06:30;22.95;;;10.80;;
74541;SDS011;63015;45.378;20.360;2022-11-14T04:08:49;20.42;;;8.98;;
74541;SDS011;63015;45.378;20.360;2022-11-14T04:11:09;23.75;;;10.07;;
74541;SDS011;63015;45.378;20.360;2022-11-14T04:13:28;19.13;;;8.88;;
74541;SDS011;63015;45.378;20.360;2022-11-14T04:15:52;20.75;;;9.57;;
74541;SDS011;63015;45.378;20.360;2022-11-14T04:18:15;21.73;;;9.75;;
74541;SDS011;63015;45.378;20.360;2022-11-14T04:20:34;18.88;;;9.73;;
74541;SDS011;63015;45.378;20.360;2022-11-14T04:22:54;10.18;;;4.80;;
74541;SDS011;63015;45.378;20.360;2022-11-14T04:25:12;14.90;;;7.18;;
74541;SDS011;63015;45.378;20.360;2022-11-14T04:27:32;20.27;;;9.38;;
74541;SDS011;63015;45.378;20.360;2022-11-14T04:29:51;10.20;;;4.75;;
74541;SDS011;63015;45.378;20.360;2022-11-14T04:32:10;17.67;;;8.63;;
74541;SDS011;63015;45.378;20.360;2022-11-14T04:34:29;17.42;;;8.85;;
74541;SDS011;63015;45.378;20.360;2022-11-14T04:36:48;18.90;;;9.45;;
74541;SDS011;63015;45.378;20.360;2022-11-14T04:39:10;16.73;;;7.95;;
74541;SDS011;63015;45.378;20.360;2022-11-14T04:41:29;19.52;;;9.50;;
74541;SDS011;63015;45.378;20.360;2022-11-14T04:43:48;19.73;;;9.38;;
74541;SDS011;63015;45.378;20.360;2022-11-14T04:46:07;20.50;;;10.00;;
74541;SDS011;63015;45.378;20.360;2022-11-14T04:48:26;17.95;;;8.98;;
74541;SDS011;63015;45.378;20.360;2022-11-14T04:50:45;18.20;;;9.45;;
74541;SDS011;63015;45.378;20.360;2022-11-14T04:53:04;16.80;;;8.85;;
74541;SDS011;63015;45.378;20.360;2022-11-14T04:55:23;18.63;;;9.20;;
74541;SDS011;63015;45.378;20.360;2022-11-14T04:57:42;16.13;;;8.57;;
74541;SDS011;63015;45.378;20.360;2022-11-14T05:00:02;13.07;;;6.75;;
74541;SDS011;63015;45.378;20.360;2022-11-14T05:02:21;20.15;;;8.88;;
74541;SDS011;63015;45.378;20.360;2022-11-14T05:04:40;19.55;;;8.57;;
74541;SDS011;63015;45.378;20.360;2022-11-14T05:07:02;11.80;;;5.75;;
74541;SDS011;63015;45.378;20.360;2022-11-14T05:09:21;15.73;;;7.43;;
74541;SDS011;63015;45.378;20.360;2022-11-14T05:11:40;15.95;;;8.30;;
74541;SDS011;63015;45.378;20.360;2022-11-14T05:13:59;16.20;;;8.25;;
74541;SDS011;63015;45.378;20.360;2022-11-14T05:16:18;20.17;;;9.27;;
74541;SDS011;63015;45.378;20.360;2022-11-14T05:18:37;16.17;;;7.82;;
74541;SDS011;63015;45.378;20.360;2022-11-14T05:20:57;17.98;;;8.77;;
74541;SDS011;63015;45.378;20.360;2022-11-14T05:23:21;17.95;;;8.63;;
74541;SDS011;63015;45.378;20.360;2022-11-14T05:25:41;18.73;;;8.63;;
74541;SDS011;63015;45.378;20.360;2022-11-14T05:28:00;19.48;;;9.02;;
74541;SDS011;63015;45.378;20.360;2022-11-14T05:30:20;16.85;;;7.70;;
74541;SDS011;63015;45.378;20.360;2022-11-14T05:32:39;22.45;;;9.10;;
74541;SDS011;63015;45.378;20.360;2022-11-14T05:34:58;12.02;;;5.75;;
74541;SDS011;63015;45.378;20.360;2022-11-14T05:37:17;18.75;;;8.82;;
74541;SDS011;63015;45.378;20.360;2022-11-14T05:39:36;15.52;;;7.50;;
74541;SDS011;63015;45.378;20.360;2022-11-14T05:41:55;19.40;;;9.27;;
74541;SDS011;63015;45.378;20.360;2022-11-14T05:44:14;18.95;;;9.32;;
74541;SDS011;63015;45.378;20.360;2022-11-14T05:46:33;19.95;;;9.13;;
74541;SDS011;63015;45.378;20.360;2022-11-14T05:48:53;20.20;;;9.88;;
74541;SDS011;63015;45.378;20.360;2022-11-14T05:51:12;21.10;;;10.05;;
74541;SDS011;63015;45.378;20.360;2022-11-14T05:53:31;22.63;;;9.32;;
74541;SDS011;63015;45.378;20.360;2022-11-14T05:55:51;19.65;;;9.55;;
74541;SDS011;63015;45.378;20.360;2022-11-14T05:58:10;21.02;;;10.07;;
74541;SDS011;63015;45.378;20.360;2022-11-14T06:00:29;27.05;;;10.73;;
74541;SDS011;63015;45.378;20.360;2022-11-14T06:02:51;27.48;;;10.70;;
74541;SDS011;63015;45.378;20.360;2022-11-14T06:05:11;20.17;;;9.32;;
74541;SDS011;63015;45.378;20.360;2022-11-14T06:07:30;21.35;;;10.23;;
74541;SDS011;63015;45.378;20.360;2022-11-14T06:09:49;18.85;;;9.70;;
74541;SDS011;63015;45.378;20.360;2022-11-14T06:12:07;21.63;;;10.02;;
74541;SDS011;63015;45.378;20.360;2022-11-14T06:14:26;22.63;;;10.18;;
74541;SDS011;63015;45.378;20.360;2022-11-14T06:16:45;21.05;;;10.10;;
74541;SDS011;63015;45.378;20.360;2022-11-14T06:19:05;18.77;;;9.23;;
74541;SDS011;63015;45.378;20.360;2022-11-14T06:21:24;19.70;;;10.45;;
74541;SDS011;63015;45.378;20.360;2022-11-14T06:23:44;18.50;;;9.82;;
74541;SDS011;63015;45.378;20.360;2022-11-14T06:26:05;17.52;;;8.80;;
74541;SDS011;63015;45.378;20.360;2022-11-14T06:28:26;22.58;;;9.60;;
74541;SDS011;63015;45.378;20.360;2022-11-14T06:30:45;19.75;;;8.73;;
74541;SDS011;63015;45.378;20.360;2022-11-14T06:33:04;16.08;;;8.27;;
74541;SDS011;63015;45.378;20.360;2022-11-14T06:35:24;16.35;;;7.97;;
74541;SDS011;63015;45.378;20.360;2022-11-14T06:37:43;20.98;;;10.15;;
74541;SDS011;63015;45.378;20.360;2022-11-14T06:40:02;23.40;;;10.88;;
74541;SDS011;63015;45.378;20.360;2022-11-14T06:42:22;22.08;;;10.95;;
74541;SDS011;63015;45.378;20.360;2022-11-14T06:44:41;22.50;;;11.70;;
74541;SDS011;63015;45.378;20.360;2022-11-14T06:47:00;24.15;;;11.35;;
74541;SDS011;63015;45.378;20.360;2022-11-14T06:49:19;20.05;;;10.90;;
74541;SDS011;63015;45.378;20.360;2022-11-14T06:51:38;24.73;;;12.05;;
74541;SDS011;63015;45.378;20.360;2022-11-14T06:53:57;24.02;;;11.25;;
74541;SDS011;63015;45.378;20.360;2022-11-14T06:56:16;21.73;;;10.95;;
74541;SDS011;63015;45.378;20.360;2022-11-14T06:58:37;24.20;;;11.07;;
74541;SDS011;63015;45.378;20.360;2022-11-14T07:01:05;20.23;;;11.45;;
74541;SDS011;63015;45.378;20.360;2022-11-14T07:03:25;23.20;;;11.68;;
74541;SDS011;63015;45.378;20.360;2022-11-14T07:05:44;24.30;;;13.00;;
74541;SDS011;63015;45.378;20.360;2022-11-14T07:08:03;25.63;;;13.07;;
74541;SDS011;63015;45.378;20.360;2022-11-14T07:10:22;29.65;;;13.30;;
74541;SDS011;63015;45.378;20.360;2022-11-14T07:12:41;23.00;;;13.23;;
74541;SDS011;63015;45.378;20.360;2022-11-14T07:15:00;25.10;;;12.55;;
74541;SDS011;63015;45.378;20.360;2022-11-14T07:17:19;27.45;;;13.73;;
74541;SDS011;63015;45.378;20.360;2022-11-14T07:19:39;27.95;;;13.25;;
74541;SDS011;63015;45.378;20.360;2022-11-14T07:21:57;27.27;;;13.68;;
74541;SDS011;63015;45.378;20.360;2022-11-14T07:24:16;23.27;;;12.13;;
74541;SDS011;63015;45.378;20.360;2022-11-14T07:26:35;20.02;;;11.30;;
74541;SDS011;63015;45.378;20.360;2022-11-14T07:28:54;22.33;;;11.45;;
74541;SDS011;63015;45.378;20.360;2022-11-14T07:31:15;22.90;;;11.38;;
74541;SDS011;63015;45.378;20.360;2022-11-14T07:33:35;20.85;;;10.80;;
74541;SDS011;63015;45.378;20.360;2022-11-14T07:35:54;23.40;;;10.85;;
74541;SDS011;63015;45.378;20.360;2022-11-14T07:38:13;23.95;;;11.20;;
74541;SDS011;63015;45.378;20.360;2022-11-14T07:40:32;21.73;;;9.27;;
74541;SDS011;63015;45.378;20.360;2022-11-14T07:42:51;20.85;;;10.45;;
74541;SDS011;63015;45.378;20.360;2022-11-14T07:45:18;21.08;;;10.77;;
74541;SDS011;63015;45.378;20.360;2022-11-14T07:47:37;17.75;;;10.00;;
74541;SDS011;63015;45.378;20.360;2022-11-14T07:49:56;25.00;;;13.93;;
74541;SDS011;63015;45.378;20.360;2022-11-14T07:52:15;26.23;;;12.95;;
74541;SDS011;63015;45.378;20.360;2022-11-14T07:54:34;25.45;;;14.02;;
74541;SDS011;63015;45.378;20.360;2022-11-14T07:56:53;28.85;;;17.23;;
74541;SDS011;63015;45.378;20.360;2022-11-14T07:59:12;34.75;;;18.42;;
74541;SDS011;63015;45.378;20.360;2022-11-14T08:01:31;42.88;;;26.52;;
74541;SDS011;63015;45.378;20.360;2022-11-14T08:03:50;62.58;;;41.78;;
74541;SDS011;63015;45.378;20.360;2022-11-14T08:06:10;57.05;;;33.70;;
74541;SDS011;63015;45.378;20.360;2022-11-14T08:08:31;48.10;;;30.33;;
74541;SDS011;63015;45.378;20.360;2022-11-14T08:10:50;42.75;;;26.58;;
74541;SDS011;63015;45.378;20.360;2022-11-14T08:13:09;33.08;;;20.65;;
74541;SDS011;63015;45.378;20.360;2022-11-14T08:15:29;34.22;;;21.50;;
74541;SDS011;63015;45.378;20.360;2022-11-14T08:17:49;30.48;;;18.30;;
74541;SDS011;63015;45.378;20.360;2022-11-14T08:20:09;22.15;;;12.77;;
74541;SDS011;63015;45.378;20.360;2022-11-14T08:22:29;22.08;;;12.23;;
74541;SDS011;63015;45.378;20.360;2022-11-14T08:24:49;24.30;;;12.80;;
74541;SDS011;63015;45.378;20.360;2022-11-14T08:27:07;22.15;;;12.38;;
74541;SDS011;63015;45.378;20.360;2022-11-14T08:29:26;23.00;;;11.20;;
74541;SDS011;63015;45.378;20.360;2022-11-14T08:31:45;18.40;;;9.73;;
74541;SDS011;63015;45.378;20.360;2022-11-14T08:34:04;15.25;;;8.73;;
74541;SDS011;63015;45.378;20.360;2022-11-14T08:36:23;21.92;;;11.88;;
74541;SDS011;63015;45.378;20.360;2022-11-14T08:38:42;21.00;;;10.63;;
74541;SDS011;63015;45.378;20.360;2022-11-14T08:41:02;21.55;;;10.98;;
74541;SDS011;63015;45.378;20.360;2022-11-14T08:43:22;19.90;;;11.00;;
74541;SDS011;63015;45.378;20.360;2022-11-14T08:45:41;21.27;;;11.88;;
74541;SDS011;63015;45.378;20.360;2022-11-14T08:48:00;24.02;;;12.73;;
74541;SDS011;63015;45.378;20.360;2022-11-14T08:50:19;22.58;;;12.13;;
74541;SDS011;63015;45.378;20.360;2022-11-14T08:52:38;22.05;;;11.43;;
74541;SDS011;63015;45.378;20.360;2022-11-14T08:54:56;20.33;;;11.88;;
74541;SDS011;63015;45.378;20.360;2022-11-14T08:57:15;22.05;;;12.50;;
74541;SDS011;63015;45.378;20.360;2022-11-14T08:59:35;22.20;;;12.38;;
74541;SDS011;63015;45.378;20.360;2022-11-14T09:01:54;24.45;;;13.45;;
74541;SDS011;63015;45.378;20.360;2022-11-14T09:04:13;25.83;;;13.93;;
74541;SDS011;63015;45.378;20.360;2022-11-14T09:06:32;25.58;;;14.23;;
74541;SDS011;63015;45.378;20.360;2022-11-14T09:08:52;27.10;;;15.00;;
74541;SDS011;63015;45.378;20.360;2022-11-14T09:11:11;20.83;;;12.38;;
74541;SDS011;63015;45.378;20.360;2022-11-14T09:13:30;25.13;;;13.93;;
74541;SDS011;63015;45.378;20.360;2022-11-14T09:15:51;28.50;;;14.48;;
74541;SDS011;63015;45.378;20.360;2022-11-14T09:18:10;24.52;;;14.48;;
74541;SDS011;63015;45.378;20.360;2022-11-14T09:20:30;26.95;;;14.05;;
74541;SDS011;63015;45.378;20.360;2022-11-14T09:22:49;25.20;;;15.30;;
74541;SDS011;63015;45.378;20.360;2022-11-14T09:25:11;29.23;;;15.68;;
74541;SDS011;63015;45.378;20.360;2022-11-14T09:27:30;26.90;;;15.77;;
74541;SDS011;63015;45.378;20.360;2022-11-14T09:29:49;23.67;;;14.88;;
74541;SDS011;63015;45.378;20.360;2022-11-14T09:32:08;26.15;;;16.30;;
74541;SDS011;63015;45.378;20.360;2022-11-14T09:34:27;20.67;;;11.43;;
74541;SDS011;63015;45.378;20.360;2022-11-14T09:36:46;27.27;;;16.55;;
74541;SDS011;63015;45.378;20.360;2022-11-14T09:39:05;26.40;;;16.08;;
74541;SDS011;63015;45.378;20.360;2022-11-14T09:46:55;27.17;;;16.15;;
74541;SDS011;63015;45.378;20.360;2022-11-14T09:51:49;30.42;;;18.17;;
74541;SDS011;63015;45.378;20.360;2022-11-14T09:54:24;30.45;;;18.95;;
74541;SDS011;63015;45.378;20.360;2022-11-14T09:56:46;31.40;;;19.83;;
74541;SDS011;63015;45.378;20.360;2022-11-14T09:59:12;29.23;;;19.25;;
74541;SDS011;63015;45.378;20.360;2022-11-14T10:06:45;32.70;;;18.67;;
74541;SDS011;63015;45.378;20.360;2022-11-14T10:11:51;28.60;;;17.05;;
74541;SDS011;63015;45.378;20.360;2022-11-14T10:26:26;26.75;;;14.60;;
74541;SDS011;63015;45.378;20.360;2022-11-14T10:32:04;31.13;;;19.02;;
74541;SDS011;63015;45.378;20.360;2022-11-14T10:34:02;28.23;;;17.35;;
74541;SDS011;63015;45.378;20.360;2022-11-14T10:39:38;32.83;;;18.67;;
74541;SDS011;63015;45.378;20.360;2022-11-14T10:42:14;30.25;;;19.90;;
74541;SDS011;63015;45.378;20.360;2022-11-14T10:44:44;33.60;;;20.38;;
74541;SDS011;63015;45.378;20.360;2022-11-14T10:47:11;32.97;;;20.88;;
74541;SDS011;63015;45.378;20.360;2022-11-14T10:49:33;35.00;;;21.65;;
74541;SDS011;63015;45.378;20.360;2022-11-14T10:51:55;31.92;;;19.17;;
74541;SDS011;63015;45.378;20.360;2022-11-14T10:54:27;31.73;;;19.52;;
74541;SDS011;63015;45.378;20.360;2022-11-14T10:56:56;24.17;;;14.23;;
74541;SDS011;63015;45.378;20.360;2022-11-14T10:59:15;24.63;;;15.10;;
74541;SDS011;63015;45.378;20.360;2022-11-14T11:01:39;26.65;;;16.60;;
74541;SDS011;63015;45.378;20.360;2022-11-14T11:06:56;30.85;;;17.20;;
74541;SDS011;63015;45.378;20.360;2022-11-14T11:09:58;25.75;;;16.67;;
74541;SDS011;63015;45.378;20.360;2022-11-14T11:12:45;20.30;;;12.52;;
74541;SDS011;63015;45.378;20.360;2022-11-14T11:20:47;19.98;;;13.10;;
74541;SDS011;63015;45.378;20.360;2022-11-14T11:23:23;20.27;;;11.10;;
74541;SDS011;63015;45.378;20.360;2022-11-14T11:25:44;21.25;;;11.98;;
74541;SDS011;63015;45.378;20.360;2022-11-14T11:30:35;17.30;;;9.98;;
74541;SDS011;63015;45.378;20.360;2022-11-14T11:32:55;16.63;;;9.75;;
74541;SDS011;63015;45.378;20.360;2022-11-14T11:35:16;14.15;;;8.13;;
74541;SDS011;63015;45.378;20.360;2022-11-14T11:37:37;18.65;;;10.25;;
74541;SDS011;63015;45.378;20.360;2022-11-14T11:40:02;15.00;;;8.20;;
74541;SDS011;63015;45.378;20.360;2022-11-14T11:42:26;14.07;;;8.88;;
74541;SDS011;63015;45.378;20.360;2022-11-14T11:44:54;16.63;;;9.38;;
74541;SDS011;63015;45.378;20.360;2022-11-14T11:47:17;13.77;;;8.23;;
74541;SDS011;63015;45.378;20.360;2022-11-14T11:52:04;13.40;;;7.78;;
74541;SDS011;63015;45.378;20.360;2022-11-14T11:54:32;15.77;;;8.73;;
74541;SDS011;63015;45.378;20.360;2022-11-14T11:57:01;13.00;;;8.65;;
74541;SDS011;63015;45.378;20.360;2022-11-14T11:59:32;14.50;;;7.95;;
74541;SDS011;63015;45.378;20.360;2022-11-14T12:02:02;12.48;;;6.90;;
74541;SDS011;63015;45.378;20.360;2022-11-14T12:04:34;11.43;;;6.85;;
74541;SDS011;63015;45.378;20.360;2022-11-14T12:07:09;10.27;;;6.28;;
74541;SDS011;63015;45.378;20.360;2022-11-14T12:09:35;10.95;;;6.43;;
74541;SDS011;63015;45.378;20.360;2022-11-14T12:12:00;11.77;;;6.93;;
74541;SDS011;63015;45.378;20.360;2022-11-14T12:14:31;12.07;;;6.63;;
74541;SDS011;63015;45.378;20.360;2022-11-14T12:22:16;14.52;;;6.55;;
74541;SDS011;63015;45.378;20.360;2022-11-14T12:32:41;12.82;;;6.68;;
74541;SDS011;63015;45.378;20.360;2022-11-14T12:35:09;11.52;;;6.57;;
74541;SDS011;63015;45.378;20.360;2022-11-14T12:37:41;11.13;;;6.38;;
74541;SDS011;63015;45.378;20.360;2022-11-14T12:40:06;10.50;;;5.68;;
74541;SDS011;63015;45.378;20.360;2022-11-14T12:42:36;11.13;;;6.05;;
74541;SDS011;63015;45.378;20.360;2022-11-14T12:44:55;10.73;;;6.25;;
74541;SDS011;63015;45.378;20.360;2022-11-14T12:47:15;12.52;;;6.72;;
74541;SDS011;63015;45.378;20.360;2022-11-14T12:52:06;11.35;;;6.05;;
74541;SDS011;63015;45.378;20.360;2022-11-14T12:54:58;12.43;;;5.38;;
74541;SDS011;63015;45.378;20.360;2022-11-14T12:57:24;11.25;;;6.80;;
74541;SDS011;63015;45.378;20.360;2022-11-14T13:00:07;12.77;;;6.65;;
74541;SDS011;63015;45.378;20.360;2022-11-14T13:10:44;11.27;;;6.45;;
74541;SDS011;63015;45.378;20.360;2022-11-14T13:13:07;11.80;;;6.35;;
74541;SDS011;63015;45.378;20.360;2022-11-14T13:15:54;12.32;;;6.95;;
74541;SDS011;63015;45.378;20.360;2022-11-14T13:18:36;13.75;;;4.80;;
74541;SDS011;63015;45.378;20.360;2022-11-14T13:21:35;11.00;;;5.38;;
74541;SDS011;63015;45.378;20.360;2022-11-14T13:24:03;13.77;;;7.40;;
74541;SDS011;63015;45.378;20.360;2022-11-14T13:28:51;11.80;;;6.47;;
74541;SDS011;63015;45.378;20.360;2022-11-14T13:33:40;12.13;;;6.57;;
74541;SDS011;63015;45.378;20.360;2022-11-14T13:44:04;8.65;;;4.07;;
74541;SDS011;63015;45.378;20.360;2022-11-14T13:46:32;14.80;;;7.03;;
74541;SDS011;63015;45.378;20.360;2022-11-14T13:51:54;10.00;;;6.00;;
74541;SDS011;63015;45.378;20.360;2022-11-14T13:54:13;9.40;;;4.30;;
74541;SDS011;63015;45.378;20.360;2022-11-14T13:56:56;9.23;;;5.20;;
74541;SDS011;63015;45.378;20.360;2022-11-14T14:02:35;11.13;;;5.70;;
74541;SDS011;63015;45.378;20.360;2022-11-14T14:12:48;13.20;;;7.03;;
74541;SDS011;63015;45.378;20.360;2022-11-14T14:15:14;16.52;;;7.25;;
74541;SDS011;63015;45.378;20.360;2022-11-14T14:17:48;10.88;;;6.22;;
74541;SDS011;63015;45.378;20.360;2022-11-14T14:28:14;13.80;;;7.18;;
74541;SDS011;63015;45.378;20.360;2022-11-14T14:31:08;13.38;;;7.03;;
74541;SDS011;63015;45.378;20.360;2022-11-14T14:33:37;15.10;;;7.30;;
74541;SDS011;63015;45.378;20.360;2022-11-14T14:35:58;15.45;;;7.75;;
74541;SDS011;63015;45.378;20.360;2022-11-14T14:38:22;12.15;;;6.22;;
74541;SDS011;63015;45.378;20.360;2022-11-14T14:40:45;15.02;;;7.78;;
74541;SDS011;63015;45.378;20.360;2022-11-14T14:43:05;15.30;;;8.02;;
74541;SDS011;63015;45.378;20.360;2022-11-14T14:45:26;12.32;;;5.88;;
74541;SDS011;63015;45.378;20.360;2022-11-14T14:47:47;14.88;;;8.57;;
74541;SDS011;63015;45.378;20.360;2022-11-14T14:52:41;17.58;;;9.30;;
74541;SDS011;63015;45.378;20.360;2022-11-14T14:55:01;17.60;;;10.35;;
74541;SDS011;63015;45.378;20.360;2022-11-14T14:57:21;22.67;;;10.55;;
74541;SDS011;63015;45.378;20.360;2022-11-14T14:59:46;21.80;;;12.05;;
74541;SDS011;63015;45.378;20.360;2022-11-14T15:02:26;22.08;;;10.18;;
74541;SDS011;63015;45.378;20.360;2022-11-14T15:04:46;23.15;;;11.23;;
74541;SDS011;63015;45.378;20.360;2022-11-14T15:07:14;23.55;;;11.70;;
74541;SDS011;63015;45.378;20.360;2022-11-14T15:09:37;27.55;;;12.82;;
74541;SDS011;63015;45.378;20.360;2022-11-14T15:12:08;29.73;;;14.30;;
74541;SDS011;63015;45.378;20.360;2022-11-14T15:14:29;35.03;;;15.75;;
74541;SDS011;63015;45.378;20.360;2022-11-14T15:16:50;34.35;;;14.45;;
74541;SDS011;63015;45.378;20.360;2022-11-14T15:19:11;27.00;;;12.90;;
74541;SDS011;63015;45.378;20.360;2022-11-14T15:21:33;27.98;;;10.68;;
74541;SDS011;63015;45.378;20.360;2022-11-14T15:26:29;20.35;;;9.75;;
74541;SDS011;63015;45.378;20.360;2022-11-14T15:28:49;23.58;;;9.15;;
74541;SDS011;63015;45.378;20.360;2022-11-14T15:31:14;18.20;;;8.48;;
74541;SDS011;63015;45.378;20.360;2022-11-14T15:33:36;21.33;;;9.38;;
74541;SDS011;63015;45.378;20.360;2022-11-14T15:36:06;22.25;;;9.32;;
74541;SDS011;63015;45.378;20.360;2022-11-14T15:38:27;22.92;;;9.85;;
74541;SDS011;63015;45.378;20.360;2022-11-14T15:41:08;27.00;;;11.40;;
74541;SDS011;63015;45.378;20.360;2022-11-14T15:46:02;25.98;;;11.57;;